Time;durP1;ratioP1;P1;durP2;ratioP2;P2;SDS_P1;SDS_P2;PMS_P1;PMS_P2;Temp;Humidity;BMP_temperature;BMP_pressure;BME280_temperature;BME280_humidity;BME280_pressure;Samples;Min_cycle;Max_cycle;Signal;HPM_P1;HPM_P2
2022/11/10 00:01:52;;;;;;;0.20;0.20;;;10.10;99.90;;;;;;4952834;28;20191;-86
2022/11/10 00:04:17;;;;;;;0.20;0.20;;;10.10;99.90;;;;;;4951186;28;20647;-86
2022/11/10 00:06:45;;;;;;;0.20;0.20;;;10.10;99.90;;;;;;4954171;28;20262;-86
2022/11/10 00:09:11;;;;;;;0.20;0.20;;;10.10;99.90;;;;;;4947783;29;20671;-86
2022/11/10 00:11:36;;;;;;;0.20;0.20;;;10.10;99.90;;;;;;4954479;28;20438;-86
2022/11/10 00:17:01;;;;;;;0.20;0.20;;;10.10;99.90;;;;;;4966338;28;20198;-87
2022/11/10 00:19:30;;;;;;;0.20;0.20;;;10.10;99.90;;;;;;4944922;28;20852;-86
2022/11/10 00:21:56;;;;;;;0.20;0.20;;;10.00;99.90;;;;;;4943727;28;20786;-86
2022/11/10 00:24:22;;;;;;;0.20;0.20;;;10.00;99.90;;;;;;4945036;28;20434;-86
2022/11/10 00:26:49;;;;;;;0.20;0.20;;;10.00;99.90;;;;;;4955650;28;20457;-86
2022/11/10 00:29:14;;;;;;;0.20;0.20;;;10.00;99.90;;;;;;4949564;28;20443;-86
2022/11/10 00:31:40;;;;;;;0.20;0.20;;;10.00;99.90;;;;;;4943863;28;20451;-86
2022/11/10 00:34:09;;;;;;;0.30;0.30;;;9.90;99.90;;;;;;4949721;29;20202;-86
2022/11/10 00:36:35;;;;;;;0.20;0.20;;;9.90;99.90;;;;;;4954399;28;20446;-86
2022/11/10 00:39:00;;;;;;;0.20;0.20;;;9.90;99.90;;;;;;4954264;28;20556;-86
2022/11/10 00:41:26;;;;;;;0.20;0.20;;;9.90;99.90;;;;;;4938139;28;20645;-86
2022/11/10 00:43:51;;;;;;;0.20;0.20;;;9.80;99.90;;;;;;4943528;29;20595;-86
2022/11/10 00:46:17;;;;;;;0.20;0.20;;;9.80;99.90;;;;;;4954021;28;20196;-87
2022/11/10 00:48:42;;;;;;;0.20;0.20;;;9.80;99.90;;;;;;4947570;28;20228;-86
2022/11/10 00:51:23;;;;;;;0.20;0.20;;;9.80;99.90;;;;;;4943342;28;20191;-86
2022/11/10 00:53:50;;;;;;;0.20;0.20;;;9.80;99.90;;;;;;4946513;28;20195;-86
2022/11/10 00:56:16;;;;;;;0.20;0.20;;;9.80;99.90;;;;;;4947914;28;20450;-86
2022/11/10 00:58:41;;;;;;;0.20;0.20;;;9.80;99.90;;;;;;4949596;28;20442;-87
2022/11/10 01:01:07;;;;;;;0.20;0.20;;;9.90;99.90;;;;;;4947920;28;20486;-85
2022/11/10 01:03:33;;;;;;;0.20;0.20;;;9.90;99.90;;;;;;4943987;28;20195;-86
2022/11/10 01:06:03;;;;;;;0.20;0.20;;;10.00;99.90;;;;;;4950946;28;20311;-84
2022/11/10 01:08:28;;;;;;;0.20;0.20;;;10.00;99.90;;;;;;4944749;28;20199;-89
2022/11/10 01:11:01;;;;;;;0.23;0.23;;;10.00;99.90;;;;;;4949428;28;20509;-92
2022/11/10 01:13:27;;;;;;;0.20;0.20;;;10.10;99.90;;;;;;4945125;28;20191;-86
2022/11/10 01:15:52;;;;;;;0.20;0.20;;;10.10;99.90;;;;;;4947078;28;21035;-86
2022/11/10 01:18:17;;;;;;;0.20;0.20;;;10.00;99.90;;;;;;4951888;28;20207;-86
2022/11/10 01:20:43;;;;;;;0.20;0.20;;;10.00;99.90;;;;;;4943029;28;20234;-87
2022/11/10 01:23:09;;;;;;;0.20;0.20;;;9.90;99.90;;;;;;4937782;28;20278;-85
2022/11/10 01:25:34;;;;;;;0.20;0.20;;;9.90;99.90;;;;;;4950142;28;20186;-86
2022/11/10 01:28:00;;;;;;;0.20;0.20;;;9.80;99.90;;;;;;4948869;28;20967;-85
2022/11/10 01:30:25;;;;;;;0.20;0.20;;;9.70;99.90;;;;;;4947387;28;20256;-86
2022/11/10 01:32:51;;;;;;;0.20;0.20;;;9.80;99.90;;;;;;4935460;28;20250;-86
2022/11/10 01:35:16;;;;;;;0.20;0.20;;;9.80;99.90;;;;;;4947517;28;20183;-86
2022/11/10 01:37:42;;;;;;;0.20;0.20;;;9.80;99.90;;;;;;4949220;28;20285;-86
2022/11/10 01:40:08;;;;;;;0.20;0.20;;;9.80;99.90;;;;;;4942439;28;20258;-85
2022/11/10 01:42:52;;;;;;;0.20;0.20;;;9.90;99.90;;;;;;4942551;28;20194;-86
2022/11/10 01:45:23;;;;;;;0.20;0.20;;;9.90;99.90;;;;;;4947186;28;20450;-88
2022/11/10 01:47:52;;;;;;;0.20;0.20;;;9.90;99.90;;;;;;4950071;28;20450;-86
2022/11/10 01:50:20;;;;;;;0.20;0.20;;;9.90;99.90;;;;;;4969373;28;20861;-86
2022/11/10 01:52:49;;;;;;;0.20;0.20;;;9.80;99.90;;;;;;4949578;28;20814;-87
2022/11/10 01:55:16;;;;;;;0.20;0.20;;;9.80;99.90;;;;;;4940519;29;20458;-85
2022/11/10 01:57:42;;;;;;;0.20;0.20;;;9.70;99.90;;;;;;4946259;28;20446;-88
2022/11/10 02:00:08;;;;;;;0.20;0.20;;;9.60;99.90;;;;;;4945971;28;20536;-88
2022/11/10 02:02:42;;;;;;;0.20;0.20;;;9.60;99.90;;;;;;4950754;28;21026;-87
2022/11/10 02:05:08;;;;;;;0.20;0.20;;;9.50;99.90;;;;;;4938485;28;21137;-86
2022/11/10 02:07:34;;;;;;;0.20;0.20;;;9.40;99.90;;;;;;4945665;28;21016;-88
2022/11/10 02:10:04;;;;;;;0.20;0.20;;;9.50;99.90;;;;;;4940435;28;20218;-88
2022/11/10 02:12:36;;;;;;;0.20;0.20;;;9.50;99.90;;;;;;4947126;28;20529;-86
2022/11/10 02:15:04;;;;;;;0.20;0.20;;;9.50;99.90;;;;;;4946307;28;20547;-87
2022/11/10 02:17:29;;;;;;;0.20;0.20;;;9.50;99.90;;;;;;4949360;28;20442;-85
2022/11/10 02:19:59;;;;;;;0.20;0.20;;;9.50;99.90;;;;;;4946851;28;20892;-88
2022/11/10 02:22:24;;;;;;;0.20;0.20;;;9.40;99.90;;;;;;4962132;28;20264;-87
2022/11/10 02:24:50;;;;;;;0.30;0.30;;;9.40;99.90;;;;;;4946190;28;20950;-87
2022/11/10 02:27:16;;;;;;;0.20;0.20;;;9.40;99.90;;;;;;4948200;29;20587;-88
2022/11/10 02:29:42;;;;;;;0.20;0.20;;;9.40;99.90;;;;;;4948950;28;20244;-88
2022/11/10 02:32:07;;;;;;;0.20;0.20;;;9.40;99.90;;;;;;4943243;28;20462;-88
2022/11/10 02:34:33;;;;;;;0.20;0.20;;;9.40;99.90;;;;;;4943900;28;20195;-86
2022/11/10 02:36:58;;;;;;;0.20;0.20;;;9.50;99.90;;;;;;4937920;28;20779;-87
2022/11/10 02:39:24;;;;;;;0.20;0.20;;;9.40;99.90;;;;;;4956014;28;20238;-84
2022/11/10 02:41:49;;;;;;;0.20;0.20;;;9.40;99.90;;;;;;4948570;28;20265;-87
2022/11/10 02:44:15;;;;;;;0.20;0.20;;;9.40;99.90;;;;;;4945993;28;20206;-86
2022/11/10 02:46:40;;;;;;;0.20;0.20;;;9.50;99.90;;;;;;4939234;28;20192;-87
2022/11/10 02:49:06;;;;;;;0.20;0.20;;;9.40;99.90;;;;;;4946942;29;20724;-88
2022/11/10 02:51:32;;;;;;;0.20;0.20;;;9.40;99.90;;;;;;4939056;28;20184;-87
2022/11/10 02:53:58;;;;;;;0.20;0.20;;;9.40;99.90;;;;;;4939350;29;20505;-87
2022/11/10 02:56:23;;;;;;;0.20;0.20;;;9.40;99.90;;;;;;4939915;29;20538;-86
2022/11/10 02:58:49;;;;;;;0.20;0.20;;;9.40;99.90;;;;;;4948375;29;20195;-86
2022/11/10 03:01:14;;;;;;;0.20;0.20;;;9.40;99.90;;;;;;4948731;28;20642;-88
2022/11/10 03:03:40;;;;;;;0.20;0.20;;;9.40;99.90;;;;;;4944622;28;20635;-90
2022/11/10 03:06:05;;;;;;;0.20;0.20;;;9.40;99.90;;;;;;4948037;28;20651;-88
2022/11/10 03:08:31;;;;;;;0.20;0.20;;;9.40;99.90;;;;;;4946197;28;20222;-86
2022/11/10 03:10:56;;;;;;;0.20;0.20;;;9.40;99.90;;;;;;4946072;29;20222;-87
2022/11/10 03:13:24;;;;;;;0.20;0.20;;;9.40;99.90;;;;;;4947009;28;20241;-88
2022/11/10 03:15:50;;;;;;;0.20;0.20;;;9.40;99.90;;;;;;4948033;28;20203;-88
2022/11/10 03:18:15;;;;;;;0.20;0.20;;;9.40;99.90;;;;;;4947189;29;20456;-88
2022/11/10 03:20:41;;;;;;;0.20;0.20;;;9.40;99.90;;;;;;4942052;28;21062;-88
2022/11/10 03:23:07;;;;;;;0.20;0.20;;;9.30;99.90;;;;;;4943298;28;20636;-88
2022/11/10 03:25:33;;;;;;;0.30;0.30;;;9.30;99.90;;;;;;4935858;28;20741;-88
2022/11/10 03:27:59;;;;;;;0.20;0.20;;;9.30;99.90;;;;;;4947756;28;20245;-85
2022/11/10 03:30:25;;;;;;;0.30;0.30;;;9.30;99.90;;;;;;4943015;28;21027;-87
2022/11/10 03:32:50;;;;;;;0.20;0.20;;;9.20;99.90;;;;;;4949386;28;20285;-89
2022/11/10 03:35:16;;;;;;;0.20;0.20;;;9.20;99.90;;;;;;4948751;29;20446;-87
2022/11/10 03:37:41;;;;;;;0.20;0.20;;;9.20;99.90;;;;;;4951685;28;20227;-89
2022/11/10 03:40:07;;;;;;;0.20;0.20;;;9.10;99.90;;;;;;4941315;28;20250;-86
2022/11/10 03:42:33;;;;;;;0.20;0.20;;;9.10;99.90;;;;;;4958378;28;20294;-87
2022/11/10 03:44:59;;;;;;;0.20;0.20;;;9.10;99.90;;;;;;4955720;28;20454;-86
2022/11/10 03:47:24;;;;;;;0.20;0.20;;;9.10;99.90;;;;;;4953996;28;20639;-88
2022/11/10 03:49:50;;;;;;;0.20;0.20;;;9.10;99.90;;;;;;4945319;28;20202;-86
2022/11/10 03:52:15;;;;;;;0.20;0.20;;;9.10;99.90;;;;;;4949271;28;20183;-88
2022/11/10 03:54:41;;;;;;;0.20;0.20;;;9.00;99.90;;;;;;4949887;29;20191;-87
2022/11/10 03:57:07;;;;;;;0.20;0.20;;;9.00;99.90;;;;;;4953935;28;20203;-87
2022/11/10 03:59:32;;;;;;;0.30;0.30;;;9.00;99.90;;;;;;4947054;28;20219;-87
2022/11/10 04:01:57;;;;;;;0.30;0.30;;;8.90;99.90;;;;;;4949568;28;20337;-87
2022/11/10 04:09:56;;;;;;;0.20;0.20;;;8.90;99.90;;;;;;4935531;28;20546;-87
2022/11/10 04:17:51;;;;;;;0.20;0.20;;;8.90;99.90;;;;;;4935582;28;20453;-88
2022/11/10 04:20:17;;;;;;;0.20;0.20;;;8.80;99.90;;;;;;4947878;28;20478;-87
2022/11/10 04:25:26;;;;;;;0.30;0.30;;;8.80;99.90;;;;;;4936955;28;20754;-87
2022/11/10 04:27:52;;;;;;;0.27;0.27;;;8.70;99.90;;;;;;4948983;28;20458;-87
2022/11/10 04:30:17;;;;;;;0.30;0.30;;;8.70;99.90;;;;;;4948746;28;20199;-85
2022/11/10 04:32:43;;;;;;;0.30;0.30;;;8.70;99.90;;;;;;4949310;28;20194;-88
2022/11/10 04:35:08;;;;;;;0.20;0.20;;;8.70;99.90;;;;;;4949907;28;20762;-88
2022/11/10 04:37:34;;;;;;;0.30;0.30;;;8.60;99.90;;;;;;4953345;28;20204;-86
2022/11/10 04:39:59;;;;;;;0.23;0.23;;;8.60;99.90;;;;;;4951115;28;20256;-86
2022/11/10 04:42:25;;;;;;;0.20;0.20;;;8.60;99.90;;;;;;4948061;28;20270;-88
2022/11/10 04:44:50;;;;;;;0.20;0.20;;;8.60;99.90;;;;;;4949936;28;20198;-88
2022/11/10 04:47:16;;;;;;;0.30;0.30;;;8.60;99.90;;;;;;4935013;29;20286;-86
2022/11/10 04:49:41;;;;;;;0.30;0.30;;;8.50;99.90;;;;;;4936017;28;20187;-86
2022/11/10 04:52:06;;;;;;;0.20;0.20;;;8.50;99.90;;;;;;4963410;28;20795;-87
2022/11/10 04:54:32;;;;;;;0.20;0.20;;;8.50;99.90;;;;;;4949787;28;20201;-87
2022/11/10 04:56:57;;;;;;;0.30;0.30;;;8.50;99.90;;;;;;4949705;28;20225;-87
2022/11/10 04:59:23;;;;;;;0.30;0.30;;;8.50;99.90;;;;;;4943816;28;20205;-87
2022/11/10 05:01:48;;;;;;;0.30;0.30;;;8.50;99.90;;;;;;4949242;28;20876;-88
2022/11/10 05:04:14;;;;;;;0.30;0.30;;;8.50;99.90;;;;;;4946759;28;20243;-87
2022/11/10 05:06:39;;;;;;;0.23;0.23;;;8.50;99.90;;;;;;4947251;28;20210;-87
2022/11/10 05:09:05;;;;;;;0.20;0.20;;;8.40;99.90;;;;;;4949550;28;20204;-87
2022/11/10 05:11:30;;;;;;;0.30;0.30;;;8.40;99.90;;;;;;4949727;28;20191;-87
2022/11/10 05:13:56;;;;;;;0.20;0.20;;;8.50;99.90;;;;;;4948876;28;20679;-87
2022/11/10 05:16:21;;;;;;;0.30;0.30;;;8.40;99.90;;;;;;4947422;28;20194;-88
2022/11/10 05:18:52;;;;;;;0.30;0.30;;;8.40;99.90;;;;;;4947644;29;20663;-86
2022/11/10 05:21:18;;;;;;;0.20;0.20;;;8.40;99.90;;;;;;4945834;28;20241;-85
2022/11/10 05:23:45;;;;;;;0.20;0.20;;;8.40;99.90;;;;;;4962744;28;21204;-87
2022/11/10 05:26:15;;;;;;;0.20;0.20;;;8.40;99.90;;;;;;4948996;29;20813;-87
2022/11/10 05:28:42;;;;;;;0.30;0.30;;;8.40;99.90;;;;;;4948237;28;20446;-86
2022/11/10 05:31:08;;;;;;;0.20;0.20;;;8.40;99.90;;;;;;4946129;28;20779;-87
2022/11/10 05:33:34;;;;;;;0.30;0.30;;;8.40;99.90;;;;;;4965916;28;20438;-87
2022/11/10 05:36:00;;;;;;;0.30;0.30;;;8.40;99.90;;;;;;4959730;28;20446;-87
2022/11/10 05:38:26;;;;;;;0.30;0.30;;;8.30;99.90;;;;;;4945079;28;20514;-87
2022/11/10 05:40:52;;;;;;;0.20;0.20;;;8.30;99.90;;;;;;4959067;28;20313;-87
2022/11/10 05:43:18;;;;;;;0.20;0.20;;;8.30;99.90;;;;;;4948915;29;20600;-86
2022/11/10 05:45:43;;;;;;;0.23;0.23;;;8.40;99.90;;;;;;4948580;28;20201;-87
2022/11/10 05:48:09;;;;;;;0.30;0.30;;;8.30;99.90;;;;;;4948945;28;20195;-85
2022/11/10 05:50:34;;;;;;;0.30;0.30;;;8.30;99.90;;;;;;4950561;29;20191;-87
2022/11/10 05:53:00;;;;;;;0.30;0.30;;;8.30;99.90;;;;;;4945465;28;20320;-86
2022/11/10 05:55:27;;;;;;;0.20;0.20;;;8.40;99.90;;;;;;4938572;28;20674;-87
2022/11/10 05:57:54;;;;;;;0.20;0.20;;;8.30;99.90;;;;;;4946834;29;20187;-86
2022/11/10 06:00:25;;;;;;;0.30;0.30;;;8.30;99.90;;;;;;4945398;28;20993;-87
2022/11/10 06:03:04;;;;;;;0.20;0.20;;;8.30;99.90;;;;;;4937022;28;20945;-87
2022/11/10 06:05:32;;;;;;;0.30;0.30;;;8.40;99.90;;;;;;4937497;28;20470;-86
2022/11/10 06:07:57;;;;;;;0.30;0.30;;;8.40;99.90;;;;;;4949311;28;20951;-86
2022/11/10 06:10:23;;;;;;;0.30;0.30;;;8.40;99.90;;;;;;4942435;28;20459;-87
2022/11/10 06:12:49;;;;;;;0.30;0.30;;;8.40;99.90;;;;;;4944897;28;20194;-86
2022/11/10 06:15:15;;;;;;;0.20;0.20;;;8.40;99.90;;;;;;4946836;29;20190;-86
2022/11/10 06:17:41;;;;;;;0.30;0.30;;;8.40;99.90;;;;;;4948035;28;20201;-88
2022/11/10 06:20:07;;;;;;;0.30;0.30;;;8.40;99.90;;;;;;4957459;28;21001;-87
2022/11/10 06:22:33;;;;;;;0.30;0.30;;;8.40;99.90;;;;;;4946568;28;20187;-87
2022/11/10 06:24:59;;;;;;;0.30;0.30;;;8.40;99.90;;;;;;4946262;28;21283;-86
2022/11/10 06:27:24;;;;;;;0.20;0.20;;;8.40;99.90;;;;;;4948249;28;20193;-86
2022/11/10 06:29:50;;;;;;;0.30;0.30;;;8.40;99.90;;;;;;4937955;28;20941;-86
2022/11/10 06:32:15;;;;;;;0.23;0.23;;;8.50;99.90;;;;;;4944458;28;20195;-87
2022/11/10 06:34:41;;;;;;;0.30;0.30;;;8.50;99.90;;;;;;4944083;28;20674;-88
2022/11/10 06:37:06;;;;;;;0.20;0.20;;;8.50;99.90;;;;;;4947453;28;20190;-87
2022/11/10 06:39:32;;;;;;;0.20;0.20;;;8.60;99.90;;;;;;4948265;28;20235;-88
2022/11/10 06:41:57;;;;;;;0.30;0.30;;;8.60;99.90;;;;;;4961459;28;20658;-87
2022/11/10 06:44:23;;;;;;;0.20;0.20;;;8.60;99.90;;;;;;4948339;29;20245;-88
2022/11/10 06:46:48;;;;;;;0.30;0.30;;;8.60;99.90;;;;;;4943442;28;20189;-87
2022/11/10 06:49:14;;;;;;;0.30;0.30;;;8.60;99.90;;;;;;4942127;28;20194;-88
2022/11/10 06:51:39;;;;;;;0.20;0.20;;;8.60;99.90;;;;;;4947794;29;20187;-89
2022/11/10 06:54:05;;;;;;;0.30;0.30;;;8.70;99.90;;;;;;4949635;28;20236;-86
2022/11/10 06:56:30;;;;;;;0.20;0.20;;;8.70;99.90;;;;;;4943216;28;20241;-88
2022/11/10 06:58:56;;;;;;;0.20;0.20;;;8.70;99.90;;;;;;4941588;28;20667;-88
2022/11/10 07:01:25;;;;;;;0.20;0.20;;;8.70;99.90;;;;;;4940931;28;20272;-86
2022/11/10 07:03:53;;;;;;;0.30;0.30;;;8.80;99.90;;;;;;4955410;28;20191;-87
2022/11/10 07:06:20;;;;;;;0.20;0.20;;;8.80;99.90;;;;;;4946471;28;20449;-88
2022/11/10 07:08:46;;;;;;;0.20;0.20;;;8.80;99.90;;;;;;4950982;28;20492;-89
2022/11/10 07:11:11;;;;;;;0.20;0.20;;;8.80;99.90;;;;;;4951274;28;20461;-87
2022/11/10 07:13:37;;;;;;;0.30;0.30;;;8.80;99.90;;;;;;4948984;28;20839;-86
2022/11/10 07:16:04;;;;;;;0.20;0.20;;;8.90;99.90;;;;;;4950385;28;20273;-85
2022/11/10 07:18:30;;;;;;;0.20;0.20;;;8.90;99.90;;;;;;4947016;28;20222;-84
2022/11/10 07:20:55;;;;;;;0.20;0.20;;;9.00;99.90;;;;;;4952299;28;20609;-84
2022/11/10 07:23:21;;;;;;;0.30;0.30;;;8.90;99.90;;;;;;4948099;28;20206;-82
2022/11/10 07:25:46;;;;;;;0.20;0.20;;;8.90;99.90;;;;;;4936617;28;20761;-84
2022/11/10 07:28:12;;;;;;;0.27;0.27;;;8.90;99.90;;;;;;4959159;28;20289;-83
2022/11/10 07:30:40;;;;;;;0.20;0.20;;;8.90;99.90;;;;;;4945797;28;20206;-82
2022/11/10 07:33:09;;;;;;;0.20;0.20;;;8.90;99.90;;;;;;4946208;29;20206;-83
2022/11/10 07:35:35;;;;;;;0.20;0.20;;;9.00;99.90;;;;;;4951136;28;21010;-82
2022/11/10 07:38:03;;;;;;;0.30;0.30;;;9.00;99.90;;;;;;4942196;28;20567;-82
2022/11/10 07:40:29;;;;;;;0.20;0.20;;;9.00;99.90;;;;;;4949018;28;20262;-83
2022/11/10 07:42:55;;;;;;;0.20;0.20;;;9.10;99.90;;;;;;4949425;28;20469;-83
2022/11/10 07:45:21;;;;;;;0.20;0.20;;;9.10;99.90;;;;;;4941265;28;21184;-83
2022/11/10 07:47:46;;;;;;;0.30;0.30;;;9.10;99.90;;;;;;4937610;28;20276;-83
2022/11/10 07:50:12;;;;;;;0.20;0.20;;;9.10;99.90;;;;;;4943484;28;20272;-83
2022/11/10 07:52:37;;;;;;;0.20;0.20;;;9.10;99.90;;;;;;4949012;29;20194;-85
2022/11/10 07:55:04;;;;;;;0.20;0.20;;;9.20;99.90;;;;;;4945113;28;20365;-83
2022/11/10 07:57:31;;;;;;;0.20;0.20;;;9.20;99.90;;;;;;4948540;29;20190;-83
2022/11/10 07:59:57;;;;;;;0.20;0.20;;;9.20;99.90;;;;;;4948241;28;20489;-83
2022/11/10 08:02:22;;;;;;;0.20;0.20;;;9.20;99.90;;;;;;4940057;28;20446;-83
2022/11/10 08:04:47;;;;;;;0.20;0.20;;;9.30;99.90;;;;;;4939123;28;20245;-83
2022/11/10 08:07:13;;;;;;;0.20;0.20;;;9.30;99.90;;;;;;4977176;28;20620;-84
2022/11/10 08:09:38;;;;;;;0.30;0.30;;;9.30;99.90;;;;;;4949068;28;20182;-83
2022/11/10 08:12:04;;;;;;;0.20;0.20;;;9.30;99.90;;;;;;4946756;28;20281;-82
2022/11/10 08:14:30;;;;;;;0.30;0.30;;;9.40;99.90;;;;;;4940221;29;20244;-83
2022/11/10 08:16:56;;;;;;;0.20;0.20;;;9.50;99.90;;;;;;4937934;28;20212;-83
2022/11/10 08:19:21;;;;;;;0.30;0.30;;;9.60;99.90;;;;;;4947689;28;20469;-83
2022/11/10 08:21:47;;;;;;;0.20;0.20;;;9.70;99.90;;;;;;4948409;28;20412;-83
2022/11/10 08:24:12;;;;;;;0.20;0.20;;;9.80;99.90;;;;;;4941947;28;20565;-83
2022/11/10 08:26:38;;;;;;;0.20;0.20;;;9.80;99.90;;;;;;4936840;28;20214;-83
2022/11/10 08:29:03;;;;;;;0.20;0.20;;;9.80;99.90;;;;;;4943768;28;20249;-83
2022/11/10 08:31:31;;;;;;;0.20;0.20;;;9.70;99.90;;;;;;4957699;28;20679;-83
2022/11/10 08:33:57;;;;;;;0.20;0.20;;;9.70;99.90;;;;;;4949552;28;20214;-83
2022/11/10 08:36:22;;;;;;;0.20;0.20;;;9.80;99.90;;;;;;4950032;28;20489;-82
2022/11/10 08:38:48;;;;;;;0.20;0.20;;;10.00;99.90;;;;;;4946785;28;20250;-81
2022/11/10 08:41:14;;;;;;;0.20;0.20;;;10.20;99.90;;;;;;4947998;28;20218;-83
2022/11/10 08:43:40;;;;;;;0.20;0.20;;;10.40;99.90;;;;;;4949939;29;20727;-81
2022/11/10 08:46:06;;;;;;;0.20;0.20;;;10.50;99.90;;;;;;4948346;28;20556;-83
2022/11/10 08:48:32;;;;;;;0.20;0.20;;;10.40;99.90;;;;;;4953965;28;20449;-81
2022/11/10 08:50:59;;;;;;;0.20;0.20;;;10.30;99.90;;;;;;4945757;28;20191;-83
2022/11/10 08:53:25;;;;;;;0.20;0.20;;;10.30;99.90;;;;;;4967429;28;20450;-83
2022/11/10 08:55:52;;;;;;;0.20;0.20;;;10.30;99.90;;;;;;4951300;28;20458;-84
2022/11/10 08:58:20;;;;;;;0.20;0.20;;;10.30;99.90;;;;;;4935533;28;20640;-84
2022/11/10 09:00:46;;;;;;;0.20;0.20;;;10.30;99.90;;;;;;4941305;29;20490;-84
2022/11/10 09:03:17;;;;;;;0.20;0.20;;;10.30;99.90;;;;;;4952994;28;20461;-83
2022/11/10 09:05:44;;;;;;;0.20;0.20;;;10.30;99.90;;;;;;4954005;28;20451;-84
2022/11/10 09:08:10;;;;;;;0.20;0.20;;;10.50;99.90;;;;;;4947428;28;20502;-83
2022/11/10 09:10:39;;;;;;;0.20;0.20;;;10.60;99.90;;;;;;4949646;28;20458;-84
2022/11/10 09:13:05;;;;;;;0.20;0.20;;;10.70;99.90;;;;;;4953644;28;20468;-81
2022/11/10 09:15:32;;;;;;;0.20;0.20;;;10.60;99.90;;;;;;4943599;28;20450;-80
2022/11/10 09:17:58;;;;;;;0.20;0.20;;;10.50;99.90;;;;;;4942720;28;20549;-83
2022/11/10 09:20:30;;;;;;;0.20;0.20;;;10.50;99.90;;;;;;4954642;28;20591;-84
2022/11/10 09:22:55;;;;;;;0.20;0.20;;;10.50;99.90;;;;;;4958146;28;20451;-82
2022/11/10 09:25:21;;;;;;;0.20;0.20;;;10.50;99.90;;;;;;4952570;28;20450;-83
2022/11/10 09:27:47;;;;;;;0.20;0.20;;;10.60;99.90;;;;;;4944120;28;20308;-83
2022/11/10 09:30:13;;;;;;;0.20;0.20;;;10.70;99.90;;;;;;4946500;28;20320;-81
2022/11/10 09:32:38;;;;;;;0.20;0.20;;;10.70;99.90;;;;;;4950508;28;20191;-83
2022/11/10 09:35:04;;;;;;;0.20;0.20;;;10.70;99.90;;;;;;4950155;29;20442;-84
2022/11/10 09:37:30;;;;;;;0.20;0.20;;;10.80;99.90;;;;;;4941931;28;20198;-84
2022/11/10 09:39:56;;;;;;;0.20;0.20;;;10.70;99.90;;;;;;4943065;28;20478;-82
2022/11/10 09:42:37;;;;;;;0.20;0.20;;;10.70;99.90;;;;;;4945586;28;20651;-83
2022/11/10 09:45:19;;;;;;;0.20;0.20;;;10.70;99.90;;;;;;4946397;28;20190;-83
2022/11/10 09:47:56;;;;;;;0.20;0.20;;;10.70;99.90;;;;;;4949669;29;20442;-83
2022/11/10 09:50:48;;;;;;;0.20;0.20;;;10.70;99.90;;;;;;4946777;28;20567;-82
2022/11/10 09:53:20;;;;;;;0.20;0.20;;;10.70;99.90;;;;;;4932170;28;20466;-83
2022/11/10 09:55:53;;;;;;;0.20;0.20;;;10.70;99.90;;;;;;4947214;28;20969;-81
2022/11/10 09:58:23;;;;;;;0.20;0.20;;;10.70;99.90;;;;;;4948988;28;20446;-83
2022/11/10 10:01:00;;;;;;;0.20;0.20;;;10.80;99.90;;;;;;4943186;28;20573;-84
2022/11/10 10:03:29;;;;;;;0.20;0.20;;;10.80;99.90;;;;;;4959448;28;20456;-84
2022/11/10 10:06:12;;;;;;;0.20;0.20;;;10.80;99.90;;;;;;4966681;28;20449;-85
2022/11/10 10:08:51;;;;;;;0.20;0.20;;;10.80;99.90;;;;;;4950869;28;20458;-85
2022/11/10 10:11:42;;;;;;;0.20;0.20;;;10.80;99.90;;;;;;4942600;28;21047;-87
2022/11/10 10:14:22;;;;;;;0.20;0.20;;;10.90;99.90;;;;;;4950191;28;21018;-85
2022/11/10 10:16:57;;;;;;;0.20;0.20;;;10.90;99.90;;;;;;4950843;28;20454;-88
2022/11/10 10:19:34;;;;;;;0.20;0.20;;;11.00;99.90;;;;;;4943301;28;20453;-85
2022/11/10 10:22:27;;;;;;;0.20;0.20;;;11.10;99.90;;;;;;4934277;28;20465;-84
2022/11/10 10:24:58;;;;;;;0.20;0.20;;;11.10;99.90;;;;;;4939058;28;20442;-85
2022/11/10 10:27:25;;;;;;;0.20;0.20;;;11.20;99.90;;;;;;4935705;28;20450;-82
2022/11/10 10:29:51;;;;;;;0.20;0.20;;;11.20;99.90;;;;;;4941191;28;20977;-86
2022/11/10 10:32:18;;;;;;;0.20;0.20;;;11.20;99.90;;;;;;4943725;28;20573;-85
2022/11/10 10:34:45;;;;;;;0.20;0.20;;;11.30;99.90;;;;;;4945604;28;20529;-84
2022/11/10 10:37:20;;;;;;;0.20;0.20;;;11.40;99.90;;;;;;4948068;29;20482;-85
2022/11/10 10:39:49;;;;;;;0.20;0.20;;;11.50;99.90;;;;;;5027953;28;21008;-86
2022/11/10 10:42:30;;;;;;;0.20;0.20;;;11.60;99.90;;;;;;5030736;28;20544;-84
2022/11/10 10:45:22;;;;;;;0.20;0.20;;;11.70;99.90;;;;;;5033327;28;21007;-86
2022/11/10 10:47:54;;;;;;;0.20;0.20;;;11.70;99.90;;;;;;5012003;28;20840;-83
2022/11/10 10:50:34;;;;;;;0.20;0.20;;;11.90;99.90;;;;;;5014481;28;20499;-84
2022/11/10 10:53:47;;;;;;;0.20;0.20;;;12.20;99.90;;;;;;5013657;28;20453;-83
2022/11/10 10:56:23;;;;;;;0.10;0.10;;;12.30;99.90;;;;;;4922217;29;20626;-85
2022/11/10 10:58:59;;;;;;;0.20;0.20;;;12.30;99.90;;;;;;4928135;29;20451;-84
2022/11/10 11:01:32;;;;;;;0.20;0.20;;;12.30;99.90;;;;;;4979344;28;20489;-83
2022/11/10 11:03:59;;;;;;;0.20;0.20;;;12.30;99.90;;;;;;5041447;28;20453;-84
2022/11/10 11:06:32;;;;;;;0.20;0.20;;;12.20;99.90;;;;;;5011834;28;20537;-84
2022/11/10 11:09:16;;;;;;;0.10;0.10;;;12.30;99.90;;;;;;5025120;28;20997;-84
2022/11/10 11:11:43;;;;;;;0.20;0.20;;;12.30;99.90;;;;;;5023414;28;20453;-83
2022/11/10 11:14:13;;;;;;;0.20;0.20;;;12.10;99.90;;;;;;5029898;28;21122;-83
2022/11/10 11:16:50;;;;;;;0.20;0.20;;;12.20;99.90;;;;;;5010646;28;20446;-83
2022/11/10 11:19:18;;;;;;;0.20;0.20;;;12.10;99.90;;;;;;5029877;28;22259;-82
2022/11/10 11:21:55;;;;;;;0.20;0.20;;;12.10;99.90;;;;;;5028181;28;20546;-82
2022/11/10 11:24:32;;;;;;;0.20;0.20;;;12.00;99.90;;;;;;5030610;28;20989;-81
2022/11/10 11:27:22;;;;;;;0.20;0.20;;;12.20;99.90;;;;;;5028448;28;21097;-79
2022/11/10 11:30:08;;;;;;;0.10;0.10;;;12.50;99.90;;;;;;5028365;28;20453;-84
2022/11/10 11:32:52;;;;;;;0.10;0.10;;;12.80;99.90;;;;;;5025484;28;20938;-83
2022/11/10 11:35:20;;;;;;;0.20;0.20;;;12.80;99.90;;;;;;5030260;28;20438;-83
2022/11/10 11:37:57;;;;;;;0.20;0.20;;;12.60;99.90;;;;;;5006859;28;20488;-80
2022/11/10 11:40:36;;;;;;;0.10;0.10;;;12.40;99.90;;;;;;5005018;28;20495;-84
2022/11/10 11:43:23;;;;;;;0.20;0.20;;;12.40;99.90;;;;;;4981829;28;20894;-83
2022/11/10 11:45:58;;;;;;;0.20;0.20;;;12.30;99.90;;;;;;4957989;28;20826;-81
2022/11/10 11:48:43;;;;;;;0.10;0.10;;;12.30;99.90;;;;;;4948936;28;20505;-83
2022/11/10 11:51:20;;;;;;;0.10;0.10;;;12.30;99.90;;;;;;4938839;28;20439;-83
2022/11/10 11:53:56;;;;;;;0.20;0.20;;;12.30;99.90;;;;;;4939731;28;20438;-84
2022/11/10 11:56:29;;;;;;;0.20;0.20;;;12.40;99.90;;;;;;4945620;28;20530;-83
2022/11/10 11:59:31;;;;;;;0.10;0.10;;;12.30;99.90;;;;;;4948541;28;20438;-82
2022/11/10 12:02:32;;;;;;;0.10;0.10;;;12.30;99.90;;;;;;4945452;28;20465;-83
2022/11/10 12:05:26;;;;;;;0.20;0.20;;;12.30;99.90;;;;;;4951126;28;20441;-83
2022/11/10 12:08:12;;;;;;;0.20;0.20;;;12.30;99.90;;;;;;4949380;28;20455;-84
2022/11/10 12:10:55;;;;;;;0.10;0.10;;;12.30;99.90;;;;;;4955402;28;20435;-83
2022/11/10 12:13:46;;;;;;;0.20;0.20;;;12.30;99.90;;;;;;4947575;28;20492;-83
2022/11/10 12:16:25;;;;;;;0.20;0.20;;;12.30;99.90;;;;;;4939024;28;20459;-83
2022/11/10 12:19:08;;;;;;;0.20;0.20;;;12.30;99.90;;;;;;4948756;29;20883;-84
2022/11/10 12:21:44;;;;;;;0.10;0.10;;;12.30;99.90;;;;;;4949380;28;20474;-84
2022/11/10 12:24:25;;;;;;;0.20;0.20;;;12.40;99.90;;;;;;4964584;28;20473;-83
2022/11/10 12:26:58;;;;;;;0.20;0.20;;;12.30;99.90;;;;;;4951860;28;20453;-84
2022/11/10 12:29:51;;;;;;;0.17;0.17;;;12.30;99.90;;;;;;4947491;28;20445;-84
2022/11/10 12:32:38;;;;;;;0.20;0.20;;;12.40;99.90;;;;;;4940441;28;20544;-83
2022/11/10 12:35:24;;;;;;;0.20;0.20;;;12.30;99.90;;;;;;4933976;28;20449;-82
2022/11/10 12:38:00;;;;;;;0.20;0.20;;;12.30;99.90;;;;;;4937880;28;20557;-83
2022/11/10 12:40:31;;;;;;;0.10;0.10;;;12.30;99.90;;;;;;4924850;29;20491;-83
2022/11/10 12:43:03;;;;;;;0.20;0.20;;;12.30;99.90;;;;;;4926736;28;20543;-81
2022/11/10 12:45:38;;;;;;;0.10;0.10;;;12.30;99.90;;;;;;4928909;28;21010;-83
2022/11/10 12:48:04;;;;;;;0.10;0.10;;;12.30;99.90;;;;;;4901522;28;20544;-84
2022/11/10 12:51:01;;;;;;;0.20;0.20;;;12.30;99.90;;;;;;4921718;28;20487;-81
2022/11/10 12:53:34;;;;;;;0.20;0.20;;;12.40;99.90;;;;;;4927059;28;20444;-81
2022/11/10 12:56:22;;;;;;;0.17;0.17;;;12.40;99.90;;;;;;4939407;28;20501;-82
2022/11/10 12:59:11;;;;;;;0.20;0.20;;;12.40;99.90;;;;;;4920145;28;20506;-81
2022/11/10 13:01:42;;;;;;;0.20;0.20;;;12.40;99.90;;;;;;4925060;28;20491;-80
2022/11/10 13:04:12;;;;;;;0.20;0.20;;;12.40;99.90;;;;;;4899367;28;20456;-83
2022/11/10 13:06:55;;;;;;;0.20;0.20;;;12.40;99.90;;;;;;4932703;28;20985;-84
2022/11/10 13:09:34;;;;;;;0.10;0.10;;;12.40;99.90;;;;;;4900425;28;20444;-82
2022/11/10 13:12:21;;;;;;;0.10;0.10;;;12.40;99.90;;;;;;4933239;28;20443;-83
2022/11/10 13:14:47;;;;;;;0.10;0.10;;;12.40;99.90;;;;;;4923225;28;20447;-82
2022/11/10 13:17:25;;;;;;;0.20;0.20;;;12.40;99.90;;;;;;4927612;28;20445;-84
2022/11/10 13:19:53;;;;;;;0.10;0.10;;;12.40;99.90;;;;;;4909650;28;20463;-81
2022/11/10 13:22:32;;;;;;;0.20;0.20;;;12.40;99.90;;;;;;4918985;28;21030;-82